WetterOnline ( https://www.wetteronline.de )

Wetter aktuell Ostalb (in 700m)

Aktuelles Wetter: Geislingen/Stötten (737m)

6-stündlich | Neueste Meldungen
Ortszeit Temperatur Wetter
Fr, 30.09. 8:00 4.7° C Nebel
Fr, 30.09. 2:00 5.1° C Nebel
Do, 29.09. 20:00 7.4° C wolkig
Do, 29.09. 14:00 8.8° C leichter Regen
Do, 29.09. 8:00 4.9° C bedeckt
Do, 29.09. 2:00 4.9° C bedeckt
Mi, 28.09. 20:00 6.0° C wolkig
Mi, 28.09. 14:00 7.7° C bewölkt
Ortszeit Temperatur Wetter
Fr, 30.09. 9:00 6.4° C Nebel
Fr, 30.09. 8:50 6.4° C fast wolkenlos
Fr, 30.09. 8:40 6.1° C Dunst
Fr, 30.09. 8:30 5.8° C Nebel
Fr, 30.09. 8:20 5.8° C Dunst
Fr, 30.09. 8:10 5.2° C Nebel
Fr, 30.09. 8:00 4.7° C Nebel
Fr, 30.09. 7:30 5.5° C Nebel
Fr, 30.09. 7:00 4.4° C Nebel
Fr, 30.09. 6:30 5.0° C wolkenlos
Fr, 30.09. 6:00 5.7° C fast wolkenlos
Ortszeit Relative Feuchte Sichtweite
Fr, 30.09. 8:00 100% 100 m
Fr, 30.09. 2:00 100% 2.0 km
Do, 29.09. 20:00 92% 30 km
Do, 29.09. 14:00 75% 60 km
Do, 29.09. 8:00 97% 20 km
Do, 29.09. 2:00 93% 50 km
Mi, 28.09. 20:00 91% 45 km
Mi, 28.09. 14:00 87% 60 km
Ortszeit Relative Feuchte Sichtweite
Fr, 30.09. 9:00 96% 17 km
Fr, 30.09. 8:50 96% -
Fr, 30.09. 8:40 97% -
Fr, 30.09. 8:30 100% 1.7 km
Fr, 30.09. 8:20 100% -
Fr, 30.09. 8:10 100% -
Fr, 30.09. 8:00 100% 100 m
Fr, 30.09. 7:30 100% 0.5 km
Fr, 30.09. 7:00 100% 100 m
Fr, 30.09. 6:30 95% 25 km
Fr, 30.09. 6:00 94% 30 km
Ortszeit Niederschlagsmenge Niederschlagsart
Fr, 30.09. 8:00 0.0 l/m2 in 12 Std. -
Fr, 30.09. 2:00 0.0 l/m2 in 6 Std. -
Do, 29.09. 20:00 0.1 l/m2 in 12 Std. Regen
Do, 29.09. 14:00 0.1 l/m2 in 6 Std. Regen
Do, 29.09. 8:00 0.0 l/m2 in 12 Std. -
Do, 29.09. 2:00 0.0 l/m2 in 6 Std. -
Mi, 28.09. 20:00 4 l/m2 in 12 Std. -
Mi, 28.09. 14:00 4 l/m2 in 6 Std. Regen
Ortszeit Niederschlagsmenge Niederschlagsart
Fr, 30.09. 9:00 0.0 l/m2 in 1 Std. -
Fr, 30.09. 8:50 keine Meldung -
Fr, 30.09. 8:40 keine Meldung -
Fr, 30.09. 8:30 0.0 l/m2 in 1 Std. -
Fr, 30.09. 8:20 keine Meldung -
Fr, 30.09. 8:10 keine Meldung -
Fr, 30.09. 8:00 0.0 l/m2 in 1 Std. -
Fr, 30.09. 7:30 0.0 l/m2 in 1 Std. -
Fr, 30.09. 7:00 0.0 l/m2 in 1 Std. -
Fr, 30.09. 6:30 0.0 l/m2 in 1 Std. -
Fr, 30.09. 6:00 0.0 l/m2 in 1 Std. -
Ortszeit Stärke Spitze Richtung
km/h Bft. km/h Grad Sektor
Fr, 30.09. 8:00 9 2 15 100° O
Fr, 30.09. 2:00 4 1 14 110° O
Do, 29.09. 20:00 7 2 14 120° SO
Do, 29.09. 14:00 4 1 14 150° SO
Do, 29.09. 8:00 7 2 14 130° SO
Do, 29.09. 2:00 7 2 14 190° S
Mi, 28.09. 20:00 11 2 32 230° SW
Mi, 28.09. 14:00 22 4 36 280° W
Ortszeit Stärke Spitze Richtung
km/h Bft. km/h Grad Sektor
Fr, 30.09. 9:00 11 2 18 110° O
Fr, 30.09. 8:50 11 2 - 110° O
Fr, 30.09. 8:40 11 2 - 100° O
Fr, 30.09. 8:30 9 2 15 110° O
Fr, 30.09. 8:20 9 2 - 110° O
Fr, 30.09. 8:10 11 2 - 90° O
Fr, 30.09. 8:00 9 2 15 100° O
Fr, 30.09. 7:30 7 2 14 110° O
Fr, 30.09. 7:00 9 2 13 100° O
Fr, 30.09. 6:30 11 2 14 100° O
Fr, 30.09. 6:00 7 2 11 80° O
Ortszeit Untergrenze Bedeckung Gattung
total tief tief mittel hoch
Fr, 30.09. 8:00 <30 m 6/8 0/8 - - -
Fr, 30.09. 2:00 - 0/8 0/8 - - -
Do, 29.09. 20:00 1500 m 8/8 3/8 - - -
Do, 29.09. 14:00 420 m 8/8 8/8 - - -
Do, 29.09. 8:00 1320 m 8/8 8/8 - - -
Do, 29.09. 2:00 6000 m 8/8 8/8 - - -
Mi, 28.09. 20:00 690 m 8/8 1/8 - - -
Mi, 28.09. 14:00 270 m 7/8 7/8 - - -
Ortszeit Bedeckungsgrad in Achtel und Wolkenuntergrenze
Fr, 30.09. 9:00 1(8100m)
Fr, 30.09. 8:50 1(8100m)
Fr, 30.09. 8:40 1
Fr, 30.09. 8:30 2(<30m) 3(8700m)
Fr, 30.09. 8:20 2(<30m) 3(8700m)
Fr, 30.09. 8:10 4
Fr, 30.09. 8:00 6(<30m)
Fr, 30.09. 7:30 4(<30m)
Fr, 30.09. 7:00 3(<30m)
Fr, 30.09. 6:30 keine Wolken
Fr, 30.09. 6:00 1(2400m)
Ortszeit Luftdruck NN (hPa) Tendenz (hPa in 3 Std.)
Fr, 30.09. 8:00 1011 + 1,3
Fr, 30.09. 2:00 1009 + 0,8
Do, 29.09. 20:00 1005 + 1,2
Do, 29.09. 14:00 1003 + 0,7
Do, 29.09. 8:00 1003 + 0,1
Do, 29.09. 2:00 1003 - 0,3
Mi, 28.09. 20:00 1001 + 0,6
Mi, 28.09. 14:00 1000 + 0,8
Ortszeit Luftdruck NN (hPa) Tendenz (hPa in 3 Std.)
Fr, 30.09. 9:00 1011 + 1,4
Fr, 30.09. 8:50 1011 keine Meldung
Fr, 30.09. 8:40 1011 keine Meldung
Fr, 30.09. 8:30 1011 + 1,3
Fr, 30.09. 8:20 1011 keine Meldung
Fr, 30.09. 8:10 1011 keine Meldung
Fr, 30.09. 8:00 1011 + 1,3
Fr, 30.09. 7:30 1010 + 1,1
Fr, 30.09. 7:00 1011 + 1,1
Fr, 30.09. 6:30 1010 + 0,9
Fr, 30.09. 6:00 1010 + 0,9
Ortszeit Schneehöhe (cm)
Fr, 30.09. 8:00 0
Fr, 30.09. 2:00 0
Do, 29.09. 20:00 0
Do, 29.09. 14:00 0
Do, 29.09. 8:00 0
Do, 29.09. 2:00 0
Mi, 28.09. 20:00 0
Mi, 28.09. 14:00 0
Ortszeit Schneehöhe (cm)
Fr, 30.09. 9:00 0
Fr, 30.09. 8:50 0
Fr, 30.09. 8:40 0
Fr, 30.09. 8:30 0
Fr, 30.09. 8:20 0
Fr, 30.09. 8:10 0
Fr, 30.09. 8:00 0
Fr, 30.09. 7:30 0
Fr, 30.09. 7:00 0
Fr, 30.09. 6:30 0
Fr, 30.09. 6:00 0
Link zu dieser Seite / Seite empfehlen

Das Wetter in ...